sensor_id;sensor_type;location;lat;lon;timestamp;P1;durP1;ratioP1;P2;durP2;ratioP2
76117;SDS011;64851;50.232;20.364;2024-01-16T00:00:01;8.00;;;2.90;;
76117;SDS011;64851;50.232;20.364;2024-01-16T00:03:04;7.40;;;3.10;;
76117;SDS011;64851;50.232;20.364;2024-01-16T00:05:45;6.60;;;2.90;;
76117;SDS011;64851;50.232;20.364;2024-01-16T00:08:26;6.00;;;3.00;;
76117;SDS011;64851;50.232;20.364;2024-01-16T00:11:14;8.40;;;3.60;;
76117;SDS011;64851;50.232;20.364;2024-01-16T00:14:09;8.30;;;3.30;;
76117;SDS011;64851;50.232;20.364;2024-01-16T00:17:04;6.90;;;3.10;;
76117;SDS011;64851;50.232;20.364;2024-01-16T00:20:00;6.40;;;3.20;;
76117;SDS011;64851;50.232;20.364;2024-01-16T00:22:35;5.50;;;2.70;;
76117;SDS011;64851;50.232;20.364;2024-01-16T00:25:23;7.70;;;3.50;;
76117;SDS011;64851;50.232;20.364;2024-01-16T00:27:59;6.50;;;2.70;;
76117;SDS011;64851;50.232;20.364;2024-01-16T00:30:47;6.30;;;2.90;;
76117;SDS011;64851;50.232;20.364;2024-01-16T00:33:22;5.20;;;2.70;;
76117;SDS011;64851;50.232;20.364;2024-01-16T00:36:11;8.10;;;3.30;;
76117;SDS011;64851;50.232;20.364;2024-01-16T00:38:46;9.60;;;2.90;;
76117;SDS011;64851;50.232;20.364;2024-01-16T00:41:41;6.50;;;3.30;;
76117;SDS011;64851;50.232;20.364;2024-01-16T00:44:36;5.60;;;2.30;;
76117;SDS011;64851;50.232;20.364;2024-01-16T00:47:17;6.90;;;3.60;;
76117;SDS011;64851;50.232;20.364;2024-01-16T00:49:59;6.10;;;2.50;;
76117;SDS011;64851;50.232;20.364;2024-01-16T00:52:43;5.10;;;2.50;;
76117;SDS011;64851;50.232;20.364;2024-01-16T00:55:31;5.90;;;2.60;;
76117;SDS011;64851;50.232;20.364;2024-01-16T00:58:06;5.40;;;2.60;;
76117;SDS011;64851;50.232;20.364;2024-01-16T01:00:54;6.30;;;2.70;;
76117;SDS011;64851;50.232;20.364;2024-01-16T01:03:35;5.20;;;2.40;;
76117;SDS011;64851;50.232;20.364;2024-01-16T01:06:16;5.60;;;2.50;;
76117;SDS011;64851;50.232;20.364;2024-01-16T01:08:57;6.90;;;3.10;;
76117;SDS011;64851;50.232;20.364;2024-01-16T01:11:39;5.80;;;2.40;;
76117;SDS011;64851;50.232;20.364;2024-01-16T01:14:27;5.90;;;2.40;;
76117;SDS011;64851;50.232;20.364;2024-01-16T01:17:22;7.90;;;3.50;;
76117;SDS011;64851;50.232;20.364;2024-01-16T01:19:57;6.00;;;2.80;;
76117;SDS011;64851;50.232;20.364;2024-01-16T01:22:45;7.30;;;2.80;;
76117;SDS011;64851;50.232;20.364;2024-01-16T01:25:20;5.50;;;2.60;;
76117;SDS011;64851;50.232;20.364;2024-01-16T01:28:08;6.60;;;2.90;;
76117;SDS011;64851;50.232;20.364;2024-01-16T01:30:43;6.70;;;2.80;;
76117;SDS011;64851;50.232;20.364;2024-01-16T01:33:39;8.90;;;3.30;;
76117;SDS011;64851;50.232;20.364;2024-01-16T01:36:35;6.90;;;3.00;;
76117;SDS011;64851;50.232;20.364;2024-01-16T01:39:10;8.40;;;3.20;;
76117;SDS011;64851;50.232;20.364;2024-01-16T01:41:58;7.50;;;3.10;;
76117;SDS011;64851;50.232;20.364;2024-01-16T01:44:33;8.80;;;3.20;;
76117;SDS011;64851;50.232;20.364;2024-01-16T01:47:22;7.10;;;2.50;;
76117;SDS011;64851;50.232;20.364;2024-01-16T01:49:57;5.50;;;2.70;;
76117;SDS011;64851;50.232;20.364;2024-01-16T01:52:46;6.70;;;2.80;;
76117;SDS011;64851;50.232;20.364;2024-01-16T01:55:21;8.10;;;3.50;;
76117;SDS011;64851;50.232;20.364;2024-01-16T01:58:09;5.60;;;2.40;;
76117;SDS011;64851;50.232;20.364;2024-01-16T02:00:44;6.30;;;2.60;;
76117;SDS011;64851;50.232;20.364;2024-01-16T02:03:40;7.10;;;3.10;;
76117;SDS011;64851;50.232;20.364;2024-01-16T02:06:37;6.40;;;3.00;;
76117;SDS011;64851;50.232;20.364;2024-01-16T02:09:12;8.60;;;3.20;;
76117;SDS011;64851;50.232;20.364;2024-01-16T02:12:07;5.70;;;2.80;;
76117;SDS011;64851;50.232;20.364;2024-01-16T02:14:42;6.30;;;3.10;;
76117;SDS011;64851;50.232;20.364;2024-01-16T02:17:30;7.20;;;3.10;;
76117;SDS011;64851;50.232;20.364;2024-01-16T02:20:05;9.10;;;3.60;;
76117;SDS011;64851;50.232;20.364;2024-01-16T02:23:00;7.10;;;2.90;;
76117;SDS011;64851;50.232;20.364;2024-01-16T02:25:38;8.50;;;3.30;;
76117;SDS011;64851;50.232;20.364;2024-01-16T02:28:28;6.10;;;2.80;;
76117;SDS011;64851;50.232;20.364;2024-01-16T02:31:03;8.90;;;3.60;;
76117;SDS011;64851;50.232;20.364;2024-01-16T02:33:51;7.90;;;3.50;;
76117;SDS011;64851;50.232;20.364;2024-01-16T02:36:32;5.70;;;3.00;;
76117;SDS011;64851;50.232;20.364;2024-01-16T02:39:20;5.30;;;2.90;;
76117;SDS011;64851;50.232;20.364;2024-01-16T02:41:55;6.50;;;2.80;;
76117;SDS011;64851;50.232;20.364;2024-01-16T02:44:44;6.60;;;3.50;;
76117;SDS011;64851;50.232;20.364;2024-01-16T02:47:20;6.90;;;3.20;;
76117;SDS011;64851;50.232;20.364;2024-01-16T02:50:15;6.20;;;2.70;;
76117;SDS011;64851;50.232;20.364;2024-01-16T02:53:10;6.70;;;3.00;;
76117;SDS011;64851;50.232;20.364;2024-01-16T02:55:45;5.10;;;2.80;;
76117;SDS011;64851;50.232;20.364;2024-01-16T02:58:34;7.20;;;3.50;;
76117;SDS011;64851;50.232;20.364;2024-01-16T03:01:08;5.70;;;3.00;;
76117;SDS011;64851;50.232;20.364;2024-01-16T03:04:04;7.00;;;2.90;;
76117;SDS011;64851;50.232;20.364;2024-01-16T03:06:59;7.70;;;3.30;;
76117;SDS011;64851;50.232;20.364;2024-01-16T03:09:34;8.20;;;4.40;;
76117;SDS011;64851;50.232;20.364;2024-01-16T03:12:22;7.90;;;3.60;;
76117;SDS011;64851;50.232;20.364;2024-01-16T03:14:57;6.80;;;3.20;;
76117;SDS011;64851;50.232;20.364;2024-01-16T03:17:45;6.50;;;3.40;;
76117;SDS011;64851;50.232;20.364;2024-01-16T03:20:20;9.80;;;3.50;;
76117;SDS011;64851;50.232;20.364;2024-01-16T03:23:15;5.50;;;3.20;;
76117;SDS011;64851;50.232;20.364;2024-01-16T03:25:50;7.10;;;2.90;;
76117;SDS011;64851;50.232;20.364;2024-01-16T03:28:45;5.90;;;2.80;;
76117;SDS011;64851;50.232;20.364;2024-01-16T03:31:40;5.60;;;3.00;;
76117;SDS011;64851;50.232;20.364;2024-01-16T03:34:15;6.10;;;3.20;;
76117;SDS011;64851;50.232;20.364;2024-01-16T03:37:04;6.70;;;3.10;;
76117;SDS011;64851;50.232;20.364;2024-01-16T03:39:39;8.10;;;3.60;;
76117;SDS011;64851;50.232;20.364;2024-01-16T03:42:34;6.40;;;2.90;;
76117;SDS011;64851;50.232;20.364;2024-01-16T03:45:29;6.10;;;2.90;;
76117;SDS011;64851;50.232;20.364;2024-01-16T03:48:05;6.70;;;2.80;;
76117;SDS011;64851;50.232;20.364;2024-01-16T03:50:55;6.20;;;2.50;;
76117;SDS011;64851;50.232;20.364;2024-01-16T03:53:29;5.10;;;2.80;;
76117;SDS011;64851;50.232;20.364;2024-01-16T03:56:25;7.60;;;3.00;;
76117;SDS011;64851;50.232;20.364;2024-01-16T03:59:20;9.10;;;3.40;;
76117;SDS011;64851;50.232;20.364;2024-01-16T04:01:55;5.90;;;2.90;;
76117;SDS011;64851;50.232;20.364;2024-01-16T04:04:45;6.50;;;3.00;;
76117;SDS011;64851;50.232;20.364;2024-01-16T04:07:22;7.50;;;3.80;;
76117;SDS011;64851;50.232;20.364;2024-01-16T04:10:11;7.90;;;3.40;;
76117;SDS011;64851;50.232;20.364;2024-01-16T04:12:46;5.80;;;2.90;;
76117;SDS011;64851;50.232;20.364;2024-01-16T04:15:36;7.20;;;3.50;;
76117;SDS011;64851;50.232;20.364;2024-01-16T04:18:13;7.00;;;3.70;;
76117;SDS011;64851;50.232;20.364;2024-01-16T04:21:02;6.00;;;3.00;;
76117;SDS011;64851;50.232;20.364;2024-01-16T04:23:37;7.30;;;3.10;;
76117;SDS011;64851;50.232;20.364;2024-01-16T04:26:25;6.50;;;2.70;;
76117;SDS011;64851;50.232;20.364;2024-01-16T04:29:00;6.50;;;2.70;;
76117;SDS011;64851;50.232;20.364;2024-01-16T04:31:50;5.40;;;2.20;;
76117;SDS011;64851;50.232;20.364;2024-01-16T04:34:25;6.90;;;3.40;;
76117;SDS011;64851;50.232;20.364;2024-01-16T04:37:20;7.20;;;3.30;;
76117;SDS011;64851;50.232;20.364;2024-01-16T04:40:15;5.70;;;2.60;;
76117;SDS011;64851;50.232;20.364;2024-01-16T04:42:50;6.80;;;3.00;;
76117;SDS011;64851;50.232;20.364;2024-01-16T04:45:38;6.30;;;3.10;;
76117;SDS011;64851;50.232;20.364;2024-01-16T04:48:13;6.70;;;3.00;;
76117;SDS011;64851;50.232;20.364;2024-01-16T04:51:02;8.20;;;3.70;;
76117;SDS011;64851;50.232;20.364;2024-01-16T04:53:38;5.90;;;3.10;;
76117;SDS011;64851;50.232;20.364;2024-01-16T04:56:27;9.90;;;3.40;;
76117;SDS011;64851;50.232;20.364;2024-01-16T04:59:02;6.40;;;3.10;;
76117;SDS011;64851;50.232;20.364;2024-01-16T05:01:50;6.80;;;3.20;;
76117;SDS011;64851;50.232;20.364;2024-01-16T05:04:26;6.00;;;2.50;;
76117;SDS011;64851;50.232;20.364;2024-01-16T05:07:23;8.40;;;4.00;;
76117;SDS011;64851;50.232;20.364;2024-01-16T05:10:18;15.70;;;6.50;;
76117;SDS011;64851;50.232;20.364;2024-01-16T05:12:53;16.90;;;7.40;;
76117;SDS011;64851;50.232;20.364;2024-01-16T05:15:41;9.30;;;4.50;;
76117;SDS011;64851;50.232;20.364;2024-01-16T05:18:17;7.80;;;3.80;;
76117;SDS011;64851;50.232;20.364;2024-01-16T05:21:12;13.30;;;8.70;;
76117;SDS011;64851;50.232;20.364;2024-01-16T05:24:07;19.20;;;11.20;;
76117;SDS011;64851;50.232;20.364;2024-01-16T05:26:43;11.80;;;7.20;;
76117;SDS011;64851;50.232;20.364;2024-01-16T05:29:31;14.40;;;9.10;;
76117;SDS011;64851;50.232;20.364;2024-01-16T05:32:17;10.00;;;4.40;;
76117;SDS011;64851;50.232;20.364;2024-01-16T05:35:00;10.80;;;5.40;;
76117;SDS011;64851;50.232;20.364;2024-01-16T05:37:42;12.90;;;5.40;;
76117;SDS011;64851;50.232;20.364;2024-01-16T05:40:31;14.60;;;5.80;;
76117;SDS011;64851;50.232;20.364;2024-01-16T05:43:12;12.70;;;4.80;;
76117;SDS011;64851;50.232;20.364;2024-01-16T05:46:00;13.60;;;5.10;;
76117;SDS011;64851;50.232;20.364;2024-01-16T05:48:35;13.30;;;6.50;;
76117;SDS011;64851;50.232;20.364;2024-01-16T05:51:23;16.20;;;7.60;;
76117;SDS011;64851;50.232;20.364;2024-01-16T05:53:58;10.50;;;4.40;;
76117;SDS011;64851;50.232;20.364;2024-01-16T05:56:46;10.20;;;4.90;;
76117;SDS011;64851;50.232;20.364;2024-01-16T05:59:27;11.20;;;4.80;;
76117;SDS011;64851;50.232;20.364;2024-01-16T06:02:09;16.90;;;7.80;;
76117;SDS011;64851;50.232;20.364;2024-01-16T06:04:51;18.80;;;8.10;;
76117;SDS011;64851;50.232;20.364;2024-01-16T06:07:40;20.50;;;9.90;;
76117;SDS011;64851;50.232;20.364;2024-01-16T06:10:15;20.50;;;9.20;;
76117;SDS011;64851;50.232;20.364;2024-01-16T06:13:04;19.40;;;8.40;;
76117;SDS011;64851;50.232;20.364;2024-01-16T06:15:39;8.30;;;3.60;;
76117;SDS011;64851;50.232;20.364;2024-01-16T06:18:34;8.40;;;4.10;;
76117;SDS011;64851;50.232;20.364;2024-01-16T06:21:10;14.10;;;6.30;;
76117;SDS011;64851;50.232;20.364;2024-01-16T06:24:05;13.00;;;5.60;;
76117;SDS011;64851;50.232;20.364;2024-01-16T06:26:39;9.90;;;5.10;;
76117;SDS011;64851;50.232;20.364;2024-01-16T06:29:29;8.50;;;3.50;;
76117;SDS011;64851;50.232;20.364;2024-01-16T06:32:04;6.60;;;2.90;;
76117;SDS011;64851;50.232;20.364;2024-01-16T06:34:52;6.20;;;3.00;;
76117;SDS011;64851;50.232;20.364;2024-01-16T06:37:27;9.30;;;3.50;;
76117;SDS011;64851;50.232;20.364;2024-01-16T06:40:16;6.90;;;3.50;;
76117;SDS011;64851;50.232;20.364;2024-01-16T06:42:51;4.40;;;2.30;;
76117;SDS011;64851;50.232;20.364;2024-01-16T06:45:39;6.00;;;2.70;;
76117;SDS011;64851;50.232;20.364;2024-01-16T06:48:14;5.90;;;2.50;;
76117;SDS011;64851;50.232;20.364;2024-01-16T06:51:10;5.40;;;2.10;;
76117;SDS011;64851;50.232;20.364;2024-01-16T06:54:05;4.50;;;2.20;;
76117;SDS011;64851;50.232;20.364;2024-01-16T06:56:40;7.50;;;3.00;;
76117;SDS011;64851;50.232;20.364;2024-01-16T06:59:36;7.70;;;3.20;;
76117;SDS011;64851;50.232;20.364;2024-01-16T07:02:31;8.60;;;4.10;;
76117;SDS011;64851;50.232;20.364;2024-01-16T07:05:06;9.50;;;4.20;;
76117;SDS011;64851;50.232;20.364;2024-01-16T07:07:54;12.10;;;4.00;;
76117;SDS011;64851;50.232;20.364;2024-01-16T07:10:28;9.50;;;3.90;;
76117;SDS011;64851;50.232;20.364;2024-01-16T07:13:17;9.60;;;3.80;;
76117;SDS011;64851;50.232;20.364;2024-01-16T07:15:52;14.30;;;5.30;;
76117;SDS011;64851;50.232;20.364;2024-01-16T07:18:40;8.20;;;3.40;;
76117;SDS011;64851;50.232;20.364;2024-01-16T07:21:16;9.50;;;3.80;;
76117;SDS011;64851;50.232;20.364;2024-01-16T07:24:05;11.60;;;3.90;;
76117;SDS011;64851;50.232;20.364;2024-01-16T07:26:39;6.70;;;3.20;;
76117;SDS011;64851;50.232;20.364;2024-01-16T07:29:35;10.20;;;4.30;;
76117;SDS011;64851;50.232;20.364;2024-01-16T07:32:10;28.50;;;14.00;;
76117;SDS011;64851;50.232;20.364;2024-01-16T07:34:59;30.90;;;16.10;;
76117;SDS011;64851;50.232;20.364;2024-01-16T07:37:34;24.70;;;11.10;;
76117;SDS011;64851;50.232;20.364;2024-01-16T07:40:29;11.10;;;6.00;;
76117;SDS011;64851;50.232;20.364;2024-01-16T07:43:24;8.40;;;3.60;;
76117;SDS011;64851;50.232;20.364;2024-01-16T07:45:58;7.20;;;2.80;;
76117;SDS011;64851;50.232;20.364;2024-01-16T07:48:54;7.90;;;3.50;;
76117;SDS011;64851;50.232;20.364;2024-01-16T07:51:29;9.60;;;3.90;;
76117;SDS011;64851;50.232;20.364;2024-01-16T07:54:24;10.00;;;2.70;;
76117;SDS011;64851;50.232;20.364;2024-01-16T07:56:59;7.00;;;2.80;;
76117;SDS011;64851;50.232;20.364;2024-01-16T07:59:55;5.10;;;1.70;;
76117;SDS011;64851;50.232;20.364;2024-01-16T08:02:55;5.90;;;2.90;;
76117;SDS011;64851;50.232;20.364;2024-01-16T08:05:37;4.50;;;1.80;;
76117;SDS011;64851;50.232;20.364;2024-01-16T08:08:26;8.40;;;2.90;;
76117;SDS011;64851;50.232;20.364;2024-01-16T08:11:01;20.10;;;4.40;;
76117;SDS011;64851;50.232;20.364;2024-01-16T08:13:49;5.30;;;2.60;;
76117;SDS011;64851;50.232;20.364;2024-01-16T08:16:37;6.90;;;2.90;;
76117;SDS011;64851;50.232;20.364;2024-01-16T08:19:32;13.70;;;5.90;;
76117;SDS011;64851;50.232;20.364;2024-01-16T08:22:07;21.40;;;7.80;;
76117;SDS011;64851;50.232;20.364;2024-01-16T08:25:02;14.80;;;5.80;;
76117;SDS011;64851;50.232;20.364;2024-01-16T08:27:58;10.10;;;4.10;;
76117;SDS011;64851;50.232;20.364;2024-01-16T08:30:35;12.30;;;4.00;;
76117;SDS011;64851;50.232;20.364;2024-01-16T08:33:52;9.90;;;4.60;;
76117;SDS011;64851;50.232;20.364;2024-01-16T08:36:31;8.20;;;3.10;;
76117;SDS011;64851;50.232;20.364;2024-01-16T08:39:19;11.20;;;3.20;;
76117;SDS011;64851;50.232;20.364;2024-01-16T08:41:54;21.70;;;6.40;;
76117;SDS011;64851;50.232;20.364;2024-01-16T08:44:51;113.90;;;24.30;;
76117;SDS011;64851;50.232;20.364;2024-01-16T08:47:46;22.30;;;7.20;;
76117;SDS011;64851;50.232;20.364;2024-01-16T08:50:21;10.00;;;4.00;;
76117;SDS011;64851;50.232;20.364;2024-01-16T08:53:10;21.60;;;6.80;;
76117;SDS011;64851;50.232;20.364;2024-01-16T08:55:51;11.10;;;3.90;;
76117;SDS011;64851;50.232;20.364;2024-01-16T08:58:33;10.10;;;3.70;;
76117;SDS011;64851;50.232;20.364;2024-01-16T09:01:18;37.70;;;11.20;;
76117;SDS011;64851;50.232;20.364;2024-01-16T09:04:00;121.50;;;27.90;;
76117;SDS011;64851;50.232;20.364;2024-01-16T09:06:41;84.10;;;21.00;;
76117;SDS011;64851;50.232;20.364;2024-01-16T09:09:30;45.50;;;13.20;;
76117;SDS011;64851;50.232;20.364;2024-01-16T09:12:04;74.40;;;17.50;;
76117;SDS011;64851;50.232;20.364;2024-01-16T09:14:55;76.90;;;17.80;;
76117;SDS011;64851;50.232;20.364;2024-01-16T09:17:36;82.70;;;21.70;;
76117;SDS011;64851;50.232;20.364;2024-01-16T09:20:25;24.40;;;7.80;;
76117;SDS011;64851;50.232;20.364;2024-01-16T09:22:59;65.30;;;17.00;;
76117;SDS011;64851;50.232;20.364;2024-01-16T09:25:47;14.80;;;4.60;;
76117;SDS011;64851;50.232;20.364;2024-01-16T09:28:22;26.20;;;6.60;;
76117;SDS011;64851;50.232;20.364;2024-01-16T09:31:11;82.40;;;18.80;;
76117;SDS011;64851;50.232;20.364;2024-01-16T09:33:46;18.90;;;5.60;;
76117;SDS011;64851;50.232;20.364;2024-01-16T09:36:38;29.70;;;6.90;;
76117;SDS011;64851;50.232;20.364;2024-01-16T09:39:13;42.60;;;12.10;;
76117;SDS011;64851;50.232;20.364;2024-01-16T09:42:03;67.90;;;15.80;;
76117;SDS011;64851;50.232;20.364;2024-01-16T09:44:46;48.00;;;12.70;;
76117;SDS011;64851;50.232;20.364;2024-01-16T09:47:32;59.30;;;16.30;;
76117;SDS011;64851;50.232;20.364;2024-01-16T09:50:16;60.90;;;16.80;;
76117;SDS011;64851;50.232;20.364;2024-01-16T09:52:58;20.80;;;8.00;;
76117;SDS011;64851;50.232;20.364;2024-01-16T09:55:39;45.30;;;11.70;;
76117;SDS011;64851;50.232;20.364;2024-01-16T09:58:21;63.90;;;15.20;;
76117;SDS011;64851;50.232;20.364;2024-01-16T10:01:02;58.10;;;15.20;;
76117;SDS011;64851;50.232;20.364;2024-01-16T10:03:46;45.50;;;12.70;;
76117;SDS011;64851;50.232;20.364;2024-01-16T10:06:27;44.60;;;11.90;;
76117;SDS011;64851;50.232;20.364;2024-01-16T10:09:15;87.50;;;22.40;;
76117;SDS011;64851;50.232;20.364;2024-01-16T10:11:50;54.10;;;15.10;;
76117;SDS011;64851;50.232;20.364;2024-01-16T10:14:38;37.70;;;11.30;;
76117;SDS011;64851;50.232;20.364;2024-01-16T10:17:21;10.70;;;4.20;;
76117;SDS011;64851;50.232;20.364;2024-01-16T10:20:04;80.90;;;21.90;;
76117;SDS011;64851;50.232;20.364;2024-01-16T10:22:52;11.70;;;4.60;;
76117;SDS011;64851;50.232;20.364;2024-01-16T10:25:35;11.90;;;4.50;;
76117;SDS011;64851;50.232;20.364;2024-01-16T10:28:11;9.70;;;3.20;;
76117;SDS011;64851;50.232;20.364;2024-01-16T10:31:14;7.60;;;3.10;;
76117;SDS011;64851;50.232;20.364;2024-01-16T10:33:49;7.50;;;2.60;;
76117;SDS011;64851;50.232;20.364;2024-01-16T10:36:44;8.20;;;3.50;;
76117;SDS011;64851;50.232;20.364;2024-01-16T10:39:40;12.70;;;4.60;;
76117;SDS011;64851;50.232;20.364;2024-01-16T10:42:15;17.00;;;6.00;;
76117;SDS011;64851;50.232;20.364;2024-01-16T10:45:04;7.40;;;2.40;;
76117;SDS011;64851;50.232;20.364;2024-01-16T10:47:40;15.40;;;5.50;;
76117;SDS011;64851;50.232;20.364;2024-01-16T10:50:29;49.80;;;16.70;;
76117;SDS011;64851;50.232;20.364;2024-01-16T10:53:07;59.70;;;17.10;;
76117;SDS011;64851;50.232;20.364;2024-01-16T10:56:04;29.90;;;9.80;;
76117;SDS011;64851;50.232;20.364;2024-01-16T11:02:12;43.60;;;14.60;;
76117;SDS011;64851;50.232;20.364;2024-01-16T11:05:07;57.90;;;17.30;;
76117;SDS011;64851;50.232;20.364;2024-01-16T11:08:06;18.70;;;7.10;;
76117;SDS011;64851;50.232;20.364;2024-01-16T11:10:42;20.40;;;7.10;;
76117;SDS011;64851;50.232;20.364;2024-01-16T11:13:42;23.10;;;9.00;;
76117;SDS011;64851;50.232;20.364;2024-01-16T11:16:21;30.70;;;12.00;;
76117;SDS011;64851;50.232;20.364;2024-01-16T11:19:17;24.50;;;9.50;;
76117;SDS011;64851;50.232;20.364;2024-01-16T11:22:17;9.60;;;4.00;;
76117;SDS011;64851;50.232;20.364;2024-01-16T11:25:12;8.40;;;3.90;;
76117;SDS011;64851;50.232;20.364;2024-01-16T11:28:12;8.50;;;3.70;;
76117;SDS011;64851;50.232;20.364;2024-01-16T11:30:48;6.70;;;3.30;;
76117;SDS011;64851;50.232;20.364;2024-01-16T11:33:43;33.50;;;10.70;;
76117;SDS011;64851;50.232;20.364;2024-01-16T11:39:44;60.10;;;29.00;;
76117;SDS011;64851;50.232;20.364;2024-01-16T11:42:39;59.20;;;20.20;;
76117;SDS011;64851;50.232;20.364;2024-01-16T11:48:17;22.80;;;8.60;;
76117;SDS011;64851;50.232;20.364;2024-01-16T11:50:59;22.80;;;9.70;;
76117;SDS011;64851;50.232;20.364;2024-01-16T11:53:41;9.10;;;4.80;;
76117;SDS011;64851;50.232;20.364;2024-01-16T11:56:30;7.10;;;3.10;;
76117;SDS011;64851;50.232;20.364;2024-01-16T12:05:26;9.70;;;4.30;;
76117;SDS011;64851;50.232;20.364;2024-01-16T12:08:07;16.00;;;6.60;;
76117;SDS011;64851;50.232;20.364;2024-01-16T12:10:49;27.30;;;10.00;;
76117;SDS011;64851;50.232;20.364;2024-01-16T12:13:30;16.00;;;6.50;;
76117;SDS011;64851;50.232;20.364;2024-01-16T12:16:12;13.10;;;4.80;;
76117;SDS011;64851;50.232;20.364;2024-01-16T12:19:09;8.90;;;3.90;;
76117;SDS011;64851;50.232;20.364;2024-01-16T12:21:58;8.20;;;3.40;;
76117;SDS011;64851;50.232;20.364;2024-01-16T12:24:32;18.50;;;6.90;;
76117;SDS011;64851;50.232;20.364;2024-01-16T12:27:20;27.40;;;10.60;;
76117;SDS011;64851;50.232;20.364;2024-01-16T12:30:05;25.30;;;10.40;;
76117;SDS011;64851;50.232;20.364;2024-01-16T12:32:48;16.60;;;8.20;;
76117;SDS011;64851;50.232;20.364;2024-01-16T12:35:42;18.90;;;7.50;;
76117;SDS011;64851;50.232;20.364;2024-01-16T12:38:32;14.70;;;7.00;;
76117;SDS011;64851;50.232;20.364;2024-01-16T12:41:13;21.70;;;9.20;;
76117;SDS011;64851;50.232;20.364;2024-01-16T12:44:05;24.20;;;9.90;;
76117;SDS011;64851;50.232;20.364;2024-01-16T12:49:42;22.30;;;9.10;;
76117;SDS011;64851;50.232;20.364;2024-01-16T12:52:26;12.20;;;6.00;;
76117;SDS011;64851;50.232;20.364;2024-01-16T12:55:14;11.30;;;5.30;;
76117;SDS011;64851;50.232;20.364;2024-01-16T12:57:49;8.10;;;4.00;;
76117;SDS011;64851;50.232;20.364;2024-01-16T13:00:37;11.80;;;5.10;;
76117;SDS011;64851;50.232;20.364;2024-01-16T13:06:11;7.10;;;3.10;;
76117;SDS011;64851;50.232;20.364;2024-01-16T13:09:03;8.70;;;4.60;;
76117;SDS011;64851;50.232;20.364;2024-01-16T13:12:03;7.40;;;3.80;;
76117;SDS011;64851;50.232;20.364;2024-01-16T13:14:59;8.30;;;3.90;;
76117;SDS011;64851;50.232;20.364;2024-01-16T13:17:55;9.40;;;4.10;;
76117;SDS011;64851;50.232;20.364;2024-01-16T13:20:50;10.70;;;5.10;;
76117;SDS011;64851;50.232;20.364;2024-01-16T13:23:26;21.60;;;7.10;;
76117;SDS011;64851;50.232;20.364;2024-01-16T13:26:16;22.10;;;7.90;;
76117;SDS011;64851;50.232;20.364;2024-01-16T13:28:51;11.70;;;5.00;;
76117;SDS011;64851;50.232;20.364;2024-01-16T13:31:40;10.60;;;4.30;;
76117;SDS011;64851;50.232;20.364;2024-01-16T13:34:16;9.20;;;4.60;;
76117;SDS011;64851;50.232;20.364;2024-01-16T13:37:07;10.20;;;4.80;;
76117;SDS011;64851;50.232;20.364;2024-01-16T13:39:43;9.70;;;4.90;;
76117;SDS011;64851;50.232;20.364;2024-01-16T13:42:38;12.00;;;5.20;;
76117;SDS011;64851;50.232;20.364;2024-01-16T13:45:33;14.00;;;7.20;;
76117;SDS011;64851;50.232;20.364;2024-01-16T13:48:10;24.10;;;12.00;;
76117;SDS011;64851;50.232;20.364;2024-01-16T13:50:59;20.80;;;10.40;;
76117;SDS011;64851;50.232;20.364;2024-01-16T13:53:35;20.90;;;10.00;;
76117;SDS011;64851;50.232;20.364;2024-01-16T13:56:30;20.10;;;8.60;;
76117;SDS011;64851;50.232;20.364;2024-01-16T13:59:25;14.30;;;7.30;;
76117;SDS011;64851;50.232;20.364;2024-01-16T14:02:14;12.90;;;5.40;;
76117;SDS011;64851;50.232;20.364;2024-01-16T14:04:49;13.80;;;7.20;;
76117;SDS011;64851;50.232;20.364;2024-01-16T14:07:44;15.90;;;6.10;;
76117;SDS011;64851;50.232;20.364;2024-01-16T14:10:40;16.30;;;7.80;;
76117;SDS011;64851;50.232;20.364;2024-01-16T14:13:16;18.80;;;8.80;;
76117;SDS011;64851;50.232;20.364;2024-01-16T14:16:07;13.90;;;5.80;;
76117;SDS011;64851;50.232;20.364;2024-01-16T14:18:48;16.20;;;6.00;;
76117;SDS011;64851;50.232;20.364;2024-01-16T14:21:38;15.70;;;5.60;;
76117;SDS011;64851;50.232;20.364;2024-01-16T14:24:13;14.10;;;5.70;;
76117;SDS011;64851;50.232;20.364;2024-01-16T14:27:02;15.00;;;6.00;;
76117;SDS011;64851;50.232;20.364;2024-01-16T14:29:37;15.70;;;6.20;;
76117;SDS011;64851;50.232;20.364;2024-01-16T14:32:26;12.90;;;4.70;;
76117;SDS011;64851;50.232;20.364;2024-01-16T14:35:01;9.10;;;3.90;;
76117;SDS011;64851;50.232;20.364;2024-01-16T14:37:50;10.10;;;4.70;;
76117;SDS011;64851;50.232;20.364;2024-01-16T14:40:25;9.50;;;4.00;;
76117;SDS011;64851;50.232;20.364;2024-01-16T14:43:14;10.10;;;3.70;;
76117;SDS011;64851;50.232;20.364;2024-01-16T14:45:50;11.00;;;4.20;;
76117;SDS011;64851;50.232;20.364;2024-01-16T14:48:46;10.20;;;3.90;;
76117;SDS011;64851;50.232;20.364;2024-01-16T14:51:41;12.10;;;4.20;;
76117;SDS011;64851;50.232;20.364;2024-01-16T14:54:22;13.20;;;4.10;;
76117;SDS011;64851;50.232;20.364;2024-01-16T14:57:04;11.40;;;4.00;;
76117;SDS011;64851;50.232;20.364;2024-01-16T14:59:47;11.90;;;4.30;;
76117;SDS011;64851;50.232;20.364;2024-01-16T15:02:28;8.80;;;3.30;;
76117;SDS011;64851;50.232;20.364;2024-01-16T15:05:10;28.50;;;9.10;;
76117;SDS011;64851;50.232;20.364;2024-01-16T15:07:55;58.10;;;12.90;;
76117;SDS011;64851;50.232;20.364;2024-01-16T15:10:36;47.50;;;13.90;;
76117;SDS011;64851;50.232;20.364;2024-01-16T15:13:24;132.90;;;26.90;;
76117;SDS011;64851;50.232;20.364;2024-01-16T15:16:12;108.60;;;25.90;;
76117;SDS011;64851;50.232;20.364;2024-01-16T15:19:07;130.60;;;28.50;;
76117;SDS011;64851;50.232;20.364;2024-01-16T15:21:42;219.80;;;52.00;;
76117;SDS011;64851;50.232;20.364;2024-01-16T15:24:30;89.20;;;21.00;;
76117;SDS011;64851;50.232;20.364;2024-01-16T15:27:11;25.10;;;7.10;;
76117;SDS011;64851;50.232;20.364;2024-01-16T15:30:01;42.80;;;11.90;;
76117;SDS011;64851;50.232;20.364;2024-01-16T15:32:45;35.50;;;11.40;;
76117;SDS011;64851;50.232;20.364;2024-01-16T15:35:26;18.80;;;7.60;;
76117;SDS011;64851;50.232;20.364;2024-01-16T15:38:07;21.10;;;8.70;;
76117;SDS011;64851;50.232;20.364;2024-01-16T15:40:48;20.80;;;7.20;;
76117;SDS011;64851;50.232;20.364;2024-01-16T15:43:31;18.30;;;7.20;;
76117;SDS011;64851;50.232;20.364;2024-01-16T15:46:26;12.40;;;6.50;;
76117;SDS011;64851;50.232;20.364;2024-01-16T15:49:21;15.60;;;6.70;;
76117;SDS011;64851;50.232;20.364;2024-01-16T15:51:56;15.30;;;7.70;;
76117;SDS011;64851;50.232;20.364;2024-01-16T15:54:44;18.60;;;7.50;;
76117;SDS011;64851;50.232;20.364;2024-01-16T15:57:18;14.70;;;6.50;;
76117;SDS011;64851;50.232;20.364;2024-01-16T16:00:09;15.80;;;6.70;;
76117;SDS011;64851;50.232;20.364;2024-01-16T16:02:44;17.60;;;7.40;;
76117;SDS011;64851;50.232;20.364;2024-01-16T16:05:40;25.00;;;8.90;;
76117;SDS011;64851;50.232;20.364;2024-01-16T16:08:15;22.00;;;7.30;;
76117;SDS011;64851;50.232;20.364;2024-01-16T16:11:10;20.60;;;7.10;;
76117;SDS011;64851;50.232;20.364;2024-01-16T16:14:05;16.60;;;6.10;;
76117;SDS011;64851;50.232;20.364;2024-01-16T16:16:44;15.00;;;5.40;;
76117;SDS011;64851;50.232;20.364;2024-01-16T16:19:34;15.00;;;5.20;;
76117;SDS011;64851;50.232;20.364;2024-01-16T16:22:09;10.90;;;4.40;;
76117;SDS011;64851;50.232;20.364;2024-01-16T16:24:58;11.60;;;5.40;;
76117;SDS011;64851;50.232;20.364;2024-01-16T16:27:33;13.40;;;5.90;;
76117;SDS011;64851;50.232;20.364;2024-01-16T16:30:30;62.30;;;22.20;;